createdAt,value
2022-09-14T00:00:25.318Z,95.10
2022-09-14T00:03:22.389Z,93.92
2022-09-14T00:06:19.606Z,92.37
2022-09-14T00:09:21.545Z,93.20
2022-09-14T00:12:18.753Z,95.89
2022-09-14T00:15:16.514Z,97.53
2022-09-14T00:18:13.553Z,95.12
2022-09-14T00:21:11.203Z,91.71
2022-09-14T00:24:08.494Z,90.61
2022-09-14T00:27:05.251Z,90.63
2022-09-14T00:30:02.280Z,91.09
2022-09-14T00:32:59.313Z,90.39
2022-09-14T00:35:56.492Z,89.74
2022-09-14T00:38:56.698Z,91.95
2022-09-14T00:41:54.458Z,92.48
2022-09-14T00:44:51.182Z,90.01
2022-09-14T00:47:50.000Z,88.44
2022-09-14T00:50:47.637Z,86.67
2022-09-14T00:53:44.815Z,87.92
2022-09-14T00:56:42.336Z,90.62
2022-09-14T00:59:40.705Z,91.16
2022-09-14T01:02:39.446Z,92.82
2022-09-14T01:05:48.034Z,93.49
2022-09-14T01:08:57.238Z,92.68
2022-09-14T01:12:03.088Z,92.88
2022-09-14T01:15:08.127Z,92.92
2022-09-14T01:18:28.515Z,95.52
2022-09-14T01:21:28.540Z,93.26
2022-09-14T01:24:47.812Z,90.56
2022-09-14T01:27:45.235Z,89.90
2022-09-14T01:30:42.105Z,91.75
2022-09-14T01:33:47.062Z,93.08
2022-09-14T01:36:46.274Z,94.44
2022-09-14T01:39:45.930Z,94.47
2022-09-14T01:42:43.391Z,92.90
2022-09-14T01:45:42.350Z,94.67
2022-09-14T01:48:54.658Z,94.73
2022-09-14T01:51:56.328Z,93.62
2022-09-14T01:54:57.265Z,91.65
2022-09-14T01:58:18.643Z,89.74
2022-09-14T02:01:19.234Z,89.38
2022-09-14T02:04:19.533Z,90.64
2022-09-14T02:07:16.523Z,92.73
2022-09-14T02:10:13.704Z,94.25
2022-09-14T02:13:10.920Z,92.53
2022-09-14T02:16:08.771Z,93.88
2022-09-14T02:19:06.423Z,94.56
2022-09-14T02:22:03.701Z,94.01
2022-09-14T02:25:00.404Z,93.07
2022-09-14T02:27:57.127Z,93.80
2022-09-14T02:31:13.050Z,90.84
2022-09-14T02:34:25.284Z,92.61
2022-09-14T02:37:31.369Z,95.11
2022-09-14T02:40:34.176Z,96.78
2022-09-14T02:44:05.012Z,98.27
2022-09-14T02:47:20.534Z,98.41
2022-09-14T02:50:54.946Z,98.60
2022-09-14T02:53:54.425Z,94.26
2022-09-14T02:56:51.528Z,91.61
2022-09-14T02:59:48.547Z,91.60
2022-09-14T03:02:45.766Z,92.71
2022-09-14T03:05:42.700Z,93.35
2022-09-14T03:08:39.545Z,94.84
2022-09-14T03:11:36.848Z,97.73
2022-09-14T03:14:34.006Z,98.79
2022-09-14T03:17:31.248Z,98.16
2022-09-14T03:20:29.645Z,98.01
2022-09-14T03:23:26.431Z,95.83
2022-09-14T03:26:24.245Z,92.78
2022-09-14T03:29:21.317Z,90.54
2022-09-14T03:32:18.172Z,91.10
2022-09-14T03:35:15.980Z,92.76
2022-09-14T03:38:13.450Z,93.34
2022-09-14T03:41:10.746Z,93.66
2022-09-14T03:44:07.747Z,92.15
2022-09-14T03:47:04.626Z,91.36
2022-09-14T03:50:01.721Z,93.62
2022-09-14T03:52:58.445Z,93.97
2022-09-14T03:55:55.374Z,94.33
2022-09-14T03:58:52.214Z,95.29
2022-09-14T04:01:49.959Z,96.50
2022-09-14T04:04:48.337Z,98.71
2022-09-14T04:07:45.583Z,97.55
2022-09-14T04:10:42.972Z,95.33
2022-09-14T04:13:40.815Z,97.51
2022-09-14T04:16:39.115Z,96.50
2022-09-14T04:19:39.765Z,92.77
2022-09-14T04:22:36.546Z,90.93
2022-09-14T04:25:33.580Z,92.38
2022-09-14T04:28:30.669Z,94.51
2022-09-14T04:31:27.544Z,97.54
2022-09-14T04:34:24.506Z,97.94
2022-09-14T04:37:21.741Z,96.72
2022-09-14T04:40:18.965Z,97.01
2022-09-14T04:43:16.658Z,96.15
2022-09-14T04:46:15.251Z,95.27
2022-09-14T04:49:13.376Z,93.93
2022-09-14T04:52:10.468Z,95.84
2022-09-14T04:55:08.161Z,93.46
2022-09-14T04:58:05.487Z,95.39
2022-09-14T05:01:08.762Z,93.68
2022-09-14T05:04:05.706Z,93.66
2022-09-14T05:07:02.344Z,96.35
2022-09-14T05:09:59.482Z,99.22
2022-09-14T05:12:56.299Z,98.20
2022-09-14T05:15:54.160Z,94.97
2022-09-14T05:18:51.882Z,93.92
2022-09-14T05:21:49.964Z,94.00
2022-09-14T05:24:47.380Z,91.62
2022-09-14T05:27:44.966Z,90.91
2022-09-14T05:30:42.551Z,92.09
2022-09-14T05:33:39.567Z,92.59
2022-09-14T05:36:37.626Z,94.67
2022-09-14T05:39:34.758Z,96.81
2022-09-14T05:42:31.892Z,95.89
2022-09-14T05:45:28.822Z,96.18
2022-09-14T05:48:25.880Z,96.62
2022-09-14T05:51:23.990Z,97.52
2022-09-14T05:54:21.753Z,98.51
2022-09-14T05:57:18.614Z,99.47
2022-09-14T06:00:16.230Z,97.63
2022-09-14T06:03:13.407Z,97.55
2022-09-14T06:06:12.510Z,98.57
2022-09-14T06:09:09.769Z,98.95
2022-09-14T06:12:06.640Z,99.86
2022-09-14T06:15:04.048Z,100.00
2022-09-14T06:18:01.938Z,100.00
2022-09-14T06:20:59.979Z,100.00
2022-09-14T06:23:56.938Z,100.00
2022-09-14T06:26:54.839Z,100.00
2022-09-14T06:29:53.899Z,100.00
2022-09-14T06:32:50.644Z,100.00
2022-09-14T06:36:12.355Z,100.00
2022-09-14T06:39:09.873Z,100.00
2022-09-14T06:42:07.431Z,100.00
2022-09-14T06:45:09.023Z,100.00
2022-09-14T06:48:06.742Z,100.00
2022-09-14T06:51:14.953Z,100.00
2022-09-14T06:54:12.535Z,100.00
2022-09-14T06:57:09.651Z,100.00
2022-09-14T07:00:07.739Z,100.00
2022-09-14T07:03:04.537Z,97.64
2022-09-14T07:06:09.029Z,93.92
2022-09-14T07:09:06.587Z,92.46
2022-09-14T07:12:04.108Z,92.24
2022-09-14T07:15:01.668Z,93.78
2022-09-14T07:17:59.029Z,93.30
2022-09-14T07:20:56.991Z,92.20
2022-09-14T07:23:55.766Z,91.97
2022-09-14T07:26:52.838Z,91.82
2022-09-14T07:29:49.941Z,91.10
2022-09-14T07:32:46.934Z,90.80
2022-09-14T07:35:44.488Z,90.06
2022-09-14T07:38:52.089Z,89.59
2022-09-14T07:41:50.875Z,90.31
2022-09-14T07:44:47.477Z,90.18
2022-09-14T07:47:44.761Z,89.77
2022-09-14T07:50:42.070Z,89.81
2022-09-14T07:53:42.660Z,90.77
2022-09-14T07:56:40.031Z,91.29
2022-09-14T07:59:38.388Z,90.84
2022-09-14T08:02:36.116Z,90.93
2022-09-14T08:05:33.793Z,92.23
2022-09-14T08:08:31.763Z,92.10
2022-09-14T08:11:30.375Z,92.91
2022-09-14T08:14:27.963Z,92.97
2022-09-14T08:17:24.491Z,92.83
2022-09-14T08:20:22.305Z,93.10
2022-09-14T08:23:19.924Z,92.58
2022-09-14T08:26:21.543Z,91.84
2022-09-14T08:29:19.260Z,92.44
2022-09-14T08:32:16.652Z,92.14
2022-09-14T08:35:13.717Z,92.14
2022-09-14T08:38:10.625Z,92.19
2022-09-14T08:41:30.879Z,91.94
2022-09-14T08:44:44.864Z,92.23
2022-09-14T08:47:42.046Z,91.09
2022-09-14T08:50:39.073Z,90.71
2022-09-14T08:53:39.322Z,89.92
2022-09-14T08:56:40.241Z,89.11
2022-09-14T08:59:53.436Z,89.00
2022-09-14T09:03:08.426Z,89.90
2022-09-14T09:06:18.707Z,89.15
2022-09-14T09:09:46.456Z,88.21
2022-09-14T09:12:55.365Z,88.82
2022-09-14T09:15:59.150Z,90.16
2022-09-14T09:19:00.327Z,87.91
2022-09-14T09:21:57.515Z,87.52
2022-09-14T09:24:55.165Z,86.41
2022-09-14T09:28:01.042Z,87.85
2022-09-14T09:31:05.340Z,87.05
2022-09-14T09:34:26.490Z,86.51
2022-09-14T09:37:23.943Z,84.43
2022-09-14T09:40:34.718Z,83.66
2022-09-14T09:43:49.056Z,82.36
2022-09-14T09:46:49.477Z,81.17
2022-09-14T09:49:46.906Z,82.18
2022-09-14T09:52:50.896Z,82.95
2022-09-14T09:55:48.960Z,81.72
2022-09-14T09:58:51.697Z,82.85
2022-09-14T10:01:48.681Z,81.38
2022-09-14T10:05:00.514Z,80.89
2022-09-14T10:08:09.361Z,80.08
2022-09-14T10:11:34.199Z,79.60
2022-09-14T10:14:36.663Z,79.78
2022-09-14T10:17:33.916Z,79.49
2022-09-14T10:20:30.652Z,78.54
2022-09-14T10:23:29.295Z,77.76
2022-09-14T10:26:27.181Z,78.40
2022-09-14T10:29:38.343Z,78.43
2022-09-14T10:32:35.972Z,78.61
2022-09-14T10:35:43.999Z,77.09
2022-09-14T10:38:46.110Z,76.97
2022-09-14T10:42:05.981Z,74.45
2022-09-14T10:45:20.936Z,75.36
2022-09-14T10:48:27.167Z,75.76
2022-09-14T10:51:46.343Z,75.22
2022-09-14T10:54:58.431Z,75.64
2022-09-14T10:58:07.826Z,76.35
2022-09-14T11:01:39.732Z,77.55
2022-09-14T11:04:49.159Z,77.21
2022-09-14T11:08:24.680Z,77.00
2022-09-14T11:11:42.935Z,75.16
2022-09-14T11:15:19.136Z,74.94
2022-09-14T11:18:41.747Z,75.75
2022-09-14T11:21:42.087Z,75.47
2022-09-14T11:24:46.276Z,74.95
2022-09-14T11:27:55.065Z,73.29
2022-09-14T11:30:55.904Z,75.08
2022-09-14T11:33:58.654Z,74.72
2022-09-14T11:36:58.988Z,74.53
2022-09-14T11:40:03.313Z,75.46
2022-09-14T11:43:06.312Z,75.53
2022-09-14T11:46:11.972Z,75.16
2022-09-14T11:49:18.791Z,74.88
2022-09-14T11:52:21.000Z,73.68
2022-09-14T11:55:18.231Z,75.10
2022-09-14T11:58:25.973Z,74.40
2022-09-14T12:01:41.533Z,71.70
2022-09-14T12:04:39.236Z,70.53
2022-09-14T12:07:39.715Z,72.61
2022-09-14T12:11:04.911Z,72.63
2022-09-14T12:14:23.395Z,72.74
2022-09-14T12:17:39.534Z,73.42
2022-09-14T12:20:37.679Z,73.93
2022-09-14T12:23:37.711Z,72.06
2022-09-14T12:26:35.123Z,72.99
2022-09-14T12:29:33.439Z,71.48
2022-09-14T12:32:40.892Z,71.22
2022-09-14T12:35:37.903Z,72.00
2022-09-14T12:38:38.019Z,71.38
2022-09-14T12:41:35.054Z,70.37
2022-09-14T12:44:41.507Z,70.47
2022-09-14T12:47:39.225Z,71.18
2022-09-14T12:50:35.827Z,69.90
2022-09-14T12:53:33.119Z,70.53
2022-09-14T12:56:42.288Z,70.71
2022-09-14T12:59:51.302Z,70.73
2022-09-14T13:03:30.066Z,70.42
2022-09-14T13:06:35.040Z,70.20
2022-09-14T13:09:32.114Z,69.76
2022-09-14T13:12:33.795Z,68.98
2022-09-14T13:15:39.509Z,69.83
2022-09-14T13:18:37.590Z,68.68
2022-09-14T13:21:34.984Z,68.60
2022-09-14T13:24:35.211Z,68.29
2022-09-14T13:27:36.138Z,67.17
2022-09-14T13:30:33.835Z,68.14
2022-09-14T13:33:31.083Z,68.63
2022-09-14T13:36:29.744Z,67.92
2022-09-14T13:39:35.234Z,68.32
2022-09-14T13:42:31.924Z,67.39
2022-09-14T13:45:28.819Z,67.84
2022-09-14T13:48:26.114Z,67.20
2022-09-14T13:51:26.235Z,67.73
2022-09-14T13:54:29.731Z,69.11
2022-09-14T13:57:26.823Z,69.02
2022-09-14T14:00:24.395Z,68.55
2022-09-14T14:03:29.020Z,68.50
2022-09-14T14:06:28.308Z,68.13
2022-09-14T14:09:26.064Z,68.50
2022-09-14T14:12:27.078Z,68.44
2022-09-14T14:15:24.008Z,68.45
2022-09-14T14:18:32.420Z,69.32
2022-09-14T14:21:32.084Z,69.47
2022-09-14T14:24:29.420Z,68.95
2022-09-14T14:27:38.365Z,67.36
2022-09-14T14:30:37.950Z,67.84
2022-09-14T14:33:36.464Z,66.66
2022-09-14T14:36:34.875Z,66.96
2022-09-14T14:39:32.617Z,66.51
2022-09-14T14:42:30.134Z,66.88
2022-09-14T14:45:27.235Z,68.05
2022-09-14T14:48:24.028Z,66.18
2022-09-14T14:51:21.818Z,66.70
2022-09-14T14:54:19.532Z,67.60
2022-09-14T14:57:17.432Z,66.59
2022-09-14T15:00:17.743Z,66.20
2022-09-14T15:03:19.160Z,66.91
2022-09-14T15:06:20.006Z,65.26
2022-09-14T15:09:25.221Z,65.28
2022-09-14T15:12:22.307Z,66.84
2022-09-14T15:15:21.791Z,66.06
2022-09-14T15:18:18.998Z,65.45
2022-09-14T15:21:16.068Z,65.01
2022-09-14T15:24:13.004Z,64.29
2022-09-14T15:27:10.152Z,67.13
2022-09-14T15:30:07.664Z,66.58
2022-09-14T15:33:05.153Z,66.67
2022-09-14T15:36:03.462Z,66.24
2022-09-14T15:39:00.815Z,66.71
2022-09-14T15:41:58.649Z,65.71
2022-09-14T15:44:56.117Z,65.84
2022-09-14T15:47:53.214Z,66.18
2022-09-14T15:50:50.191Z,66.12
2022-09-14T15:53:47.911Z,67.34
2022-09-14T15:56:52.383Z,66.51
2022-09-14T15:59:49.266Z,66.57
2022-09-14T16:02:49.495Z,66.91
2022-09-14T16:05:47.141Z,66.77
2022-09-14T16:08:43.923Z,68.42
2022-09-14T16:11:40.964Z,67.92
2022-09-14T16:14:38.365Z,67.92
2022-09-14T16:17:35.139Z,67.72
2022-09-14T16:20:32.440Z,67.36
2022-09-14T16:23:29.885Z,67.42
2022-09-14T16:26:29.522Z,67.61
2022-09-14T16:29:27.457Z,67.69
2022-09-14T16:32:23.977Z,68.12
2022-09-14T16:35:20.894Z,67.87
2022-09-14T16:38:18.316Z,67.24
2022-09-14T16:41:15.487Z,67.91
2022-09-14T16:44:19.383Z,68.71
2022-09-14T16:47:16.328Z,68.69
2022-09-14T16:50:13.478Z,70.01
2022-09-14T16:53:10.507Z,68.39
2022-09-14T16:56:09.898Z,68.79
2022-09-14T16:59:07.526Z,69.35
2022-09-14T17:02:05.324Z,70.58
2022-09-14T17:05:02.679Z,70.33
2022-09-14T17:08:00.451Z,70.51
2022-09-14T17:10:57.356Z,71.71
2022-09-14T17:13:54.398Z,71.72
2022-09-14T17:16:51.506Z,72.05
2022-09-14T17:19:48.997Z,73.63
2022-09-14T17:22:45.966Z,73.77
2022-09-14T17:25:42.906Z,72.53
2022-09-14T17:28:40.566Z,72.58
2022-09-14T17:31:40.703Z,73.46
2022-09-14T17:34:38.163Z,71.57
2022-09-14T17:37:35.051Z,71.22
2022-09-14T17:40:32.116Z,71.84
2022-09-14T17:43:28.813Z,71.83
2022-09-14T17:46:26.740Z,72.38
2022-09-14T17:49:24.229Z,74.16
2022-09-14T17:52:21.066Z,71.79
2022-09-14T17:55:17.986Z,72.03
2022-09-14T17:58:19.443Z,72.90
2022-09-14T18:01:19.564Z,74.00
2022-09-14T18:04:16.998Z,73.78
2022-09-14T18:07:14.463Z,74.92
2022-09-14T18:10:11.322Z,77.03
2022-09-14T18:13:08.609Z,77.55
2022-09-14T18:16:06.432Z,78.28
2022-09-14T18:19:03.965Z,78.94
2022-09-14T18:22:01.222Z,78.42
2022-09-14T18:24:58.088Z,78.56
2022-09-14T18:27:55.427Z,79.99
2022-09-14T18:31:06.413Z,80.25
2022-09-14T18:34:04.215Z,80.74
2022-09-14T18:37:01.273Z,80.74
2022-09-14T18:39:58.151Z,80.20
2022-09-14T18:42:55.044Z,79.39
2022-09-14T18:45:53.894Z,78.84
2022-09-14T18:48:54.853Z,79.10
2022-09-14T18:51:52.579Z,77.96
2022-09-14T18:54:50.156Z,75.82
2022-09-14T18:57:47.852Z,72.95
2022-09-14T19:00:45.988Z,71.74
2022-09-14T19:03:43.306Z,71.81
2022-09-14T19:06:41.730Z,71.95
2022-09-14T19:09:39.755Z,72.37
2022-09-14T19:12:37.070Z,72.33
2022-09-14T19:15:34.967Z,73.49
2022-09-14T19:18:32.260Z,74.15
2022-09-14T19:21:30.840Z,74.05
2022-09-14T19:24:30.905Z,73.40
2022-09-14T19:27:28.573Z,73.24
2022-09-14T19:30:26.417Z,73.76
2022-09-14T19:33:23.651Z,73.13
2022-09-14T19:36:22.214Z,73.94
2022-09-14T19:39:22.607Z,73.87
2022-09-14T19:42:23.873Z,74.01
2022-09-14T19:45:21.377Z,73.74
2022-09-14T19:48:18.735Z,73.75
2022-09-14T19:51:18.205Z,73.29
2022-09-14T19:54:15.293Z,73.56
2022-09-14T19:57:12.526Z,73.80
2022-09-14T20:00:16.287Z,73.01
2022-09-14T20:03:16.938Z,72.77
2022-09-14T20:06:23.608Z,73.85
2022-09-14T20:09:22.656Z,75.05
2022-09-14T20:12:20.369Z,74.38
2022-09-14T20:15:17.409Z,73.38
2022-09-14T20:18:14.566Z,75.22
2022-09-14T20:21:19.700Z,76.87
2022-09-14T20:24:20.076Z,78.55
2022-09-14T20:27:17.488Z,79.14
2022-09-14T20:30:14.515Z,79.69
2022-09-14T20:33:11.155Z,79.99
2022-09-14T20:36:11.071Z,79.72
2022-09-14T20:39:08.745Z,79.81
2022-09-14T20:42:06.594Z,81.13
2022-09-14T20:45:03.155Z,81.02
2022-09-14T20:48:00.293Z,81.06
2022-09-14T20:50:57.464Z,81.40
2022-09-14T20:53:56.139Z,81.66
2022-09-14T20:56:53.564Z,81.53
2022-09-14T20:59:50.638Z,82.38
2022-09-14T21:02:51.361Z,82.19
2022-09-14T21:05:48.513Z,82.66
2022-09-14T21:08:45.683Z,83.22
2022-09-14T21:11:45.842Z,82.02
2022-09-14T21:14:45.276Z,80.10
2022-09-14T21:17:42.348Z,78.57
2022-09-14T21:20:39.306Z,75.95
2022-09-14T21:23:36.430Z,74.67
2022-09-14T21:26:39.331Z,74.47
2022-09-14T21:29:39.529Z,75.49
2022-09-14T21:32:36.438Z,74.92
2022-09-14T21:35:33.805Z,75.42
2022-09-14T21:38:31.531Z,75.90
2022-09-14T21:41:30.169Z,76.98
2022-09-14T21:44:32.123Z,76.85
2022-09-14T21:47:29.475Z,80.02
2022-09-14T21:50:26.353Z,81.13
2022-09-14T21:53:23.355Z,81.03
2022-09-14T21:56:21.390Z,80.37
2022-09-14T21:59:20.266Z,80.82
2022-09-14T22:02:17.319Z,81.21
2022-09-14T22:05:14.300Z,82.22
2022-09-14T22:08:11.702Z,83.83
2022-09-14T22:11:15.112Z,84.70
2022-09-14T22:14:14.789Z,84.40
2022-09-14T22:17:12.474Z,83.75
2022-09-14T22:20:10.933Z,84.69
2022-09-14T22:23:08.575Z,83.71
2022-09-14T22:26:07.452Z,83.38
2022-09-14T22:29:04.967Z,82.56
2022-09-14T22:32:02.522Z,83.00
2022-09-14T22:34:59.637Z,81.43
2022-09-14T22:37:56.620Z,80.96
2022-09-14T22:40:57.486Z,82.77
2022-09-14T22:43:54.739Z,81.77
2022-09-14T22:46:51.463Z,82.38
2022-09-14T22:49:48.678Z,82.49
2022-09-14T22:52:45.421Z,82.90
2022-09-14T22:55:42.705Z,83.25
2022-09-14T22:58:39.360Z,82.00
2022-09-14T23:01:39.018Z,82.36
2022-09-14T23:04:36.639Z,81.95
2022-09-14T23:07:33.715Z,82.24
2022-09-14T23:10:30.656Z,81.40
2022-09-14T23:13:27.691Z,80.97
2022-09-14T23:16:26.386Z,79.95
2022-09-14T23:19:23.844Z,79.08
2022-09-14T23:22:21.297Z,78.42
2022-09-14T23:25:18.723Z,77.05
2022-09-14T23:28:15.512Z,77.28
2022-09-14T23:31:12.558Z,76.71
2022-09-14T23:34:09.744Z,76.89
2022-09-14T23:37:06.712Z,76.29
2022-09-14T23:40:03.965Z,75.29
2022-09-14T23:43:01.581Z,75.93
2022-09-14T23:45:58.795Z,76.87
2022-09-14T23:48:56.782Z,77.41
2022-09-14T23:51:54.565Z,78.67
2022-09-14T23:54:51.632Z,79.23
2022-09-14T23:57:48.740Z,78.95
